Time;durP1;ratioP1;P1;durP2;ratioP2;P2;SDS_P1;SDS_P2;PMS_P1;PMS_P2;Temp;Humidity;BMP_temperature;BMP_pressure;BME280_temperature;BME280_humidity;BME280_pressure;Samples;Min_cycle;Max_cycle;Signal;HPM_P1;HPM_P2
2024/04/09 04:48:33;;;;;;;19.40;6.60;;;;;;;8.55;100.00;100680.67;112123;1249;22441;-49
2024/04/09 04:51:00;;;;;;;12.70;5.60;;;;;;;8.59;100.00;100680.04;110859;1239;22567;-49
2024/04/09 04:53:27;;;;;;;23.10;6.10;;;;;;;8.65;100.00;100682.20;111009;1241;22528;-57
2024/04/09 04:55:54;;;;;;;10.00;5.70;;;;;;;8.72;100.00;100684.91;111941;1239;22498;-51
2024/04/09 04:58:20;;;;;;;23.90;7.10;;;;;;;8.82;100.00;100685.06;111381;1249;22452;-58
2024/04/09 05:00:47;;;;;;;18.80;6.30;;;;;;;8.97;100.00;100686.81;111666;1239;24426;-58
2024/04/09 05:03:14;;;;;;;15.50;6.00;;;;;;;9.15;100.00;100685.64;112795;1241;23112;-58
2024/04/09 05:05:41;;;;;;;17.40;5.70;;;;;;;9.32;100.00;100683.92;112856;1243;22232;-57
2024/04/09 05:08:08;;;;;;;17.50;6.20;;;;;;;9.50;100.00;100686.73;112797;1246;23079;-58
2024/04/09 05:10:37;;;;;;;17.50;6.50;;;;;;;9.69;100.00;100688.66;112719;1239;23127;-57
2024/04/09 05:13:04;;;;;;;16.30;6.50;;;;;;;9.86;100.00;100686.21;112258;1245;22598;-50
2024/04/09 05:15:31;;;;;;;18.40;6.60;;;;;;;10.02;100.00;100687.74;112668;1236;22366;-50
2024/04/09 05:18:01;;;;;;;17.70;6.50;;;;;;;10.18;100.00;100690.15;112691;1246;22383;-49
2024/04/09 05:20:31;;;;;;;19.70;6.70;;;;;;;10.37;100.00;100690.14;112271;1249;22275;-58
2024/04/09 05:22:58;;;;;;;14.00;6.30;;;;;;;10.57;99.95;100688.70;112620;1249;22394;-59
2024/04/09 05:25:30;;;;;;;14.50;6.90;;;;;;;10.80;99.12;100682.21;112349;1249;23187;-58
2024/04/09 05:27:56;;;;;;;13.50;6.20;;;;;;;11.02;98.19;100685.45;111992;1246;22436;-52
2024/04/09 05:35:08;;;;;;;23.90;7.40;;;;;;;11.55;96.07;100679.86;112574;1249;22444;-52
2024/04/09 05:43:21;;;;;;;26.60;9.00;;;;;;;12.19;95.04;100678.91;112702;1249;22421;-50
2024/04/09 05:59:24;;;;;;;17.70;7.70;;;;;;;13.36;91.75;100670.36;112725;1249;22340;-58
2024/04/09 06:06:45;;;;;;;14.80;7.40;;;;;;;13.94;92.19;100670.85;111319;1248;22535;-59
2024/04/09 06:10:27;;;;;;;16.20;7.70;;;;;;;14.19;89.73;100669.94;112269;1248;23076;-58
2024/04/09 06:26:39;;;;;;;21.70;7.20;;;;;;;15.31;81.90;100665.39;112521;1249;23635;-57
2024/04/09 06:30:07;;;;;;;15.50;5.90;;;;;;;15.59;81.60;100663.58;112829;1249;22276;-49
2024/04/09 06:32:50;;;;;;;17.10;6.90;;;;;;;15.78;80.26;100665.79;112406;1248;22442;-48
2024/04/09 06:35:19;;;;;;;15.70;6.40;;;;;;;15.96;79.62;100666.91;112391;1248;22567;-48
2024/04/09 06:37:47;;;;;;;18.10;6.80;;;;;;;16.13;78.69;100669.08;112709;1249;22410;-49
2024/04/09 06:40:17;;;;;;;18.00;6.90;;;;;;;16.32;77.91;100670.86;112466;1249;22565;-59
2024/04/09 06:42:46;;;;;;;10.10;5.00;;;;;;;16.53;76.88;100668.92;111274;1248;23752;-57
2024/04/09 06:45:13;;;;;;;9.00;5.10;;;;;;;16.71;74.52;100668.77;112694;1249;22428;-50
2024/04/09 06:47:41;;;;;;;8.90;5.00;;;;;;;16.88;72.66;100661.74;112574;1245;22206;-50
2024/04/09 06:50:10;;;;;;;14.40;5.20;;;;;;;17.04;71.40;100660.19;112759;1249;22451;-51
2024/04/09 06:52:39;;;;;;;10.30;4.50;;;;;;;17.22;70.61;100661.91;112854;1248;23211;-56
2024/04/09 06:55:06;;;;;;;14.50;4.60;;;;;;;17.42;69.95;100659.36;112891;1249;22361;-57
2024/04/09 06:57:33;;;;;;;6.80;4.70;;;;;;;17.62;69.18;100661.56;112870;1249;22423;-58
2024/04/09 07:00:00;;;;;;;7.60;4.60;;;;;;;17.81;67.91;100660.60;112929;1249;22454;-59
2024/04/09 07:02:27;;;;;;;13.40;4.40;;;;;;;17.99;66.44;100661.59;112911;1249;22406;-58
2024/04/09 07:04:56;;;;;;;13.40;3.60;;;;;;;18.14;65.73;100661.20;112701;1249;22609;-59
2024/04/09 07:07:23;;;;;;;12.20;4.30;;;;;;;18.30;65.36;100661.15;112932;1248;23204;-58
2024/04/09 07:09:50;;;;;;;9.60;4.20;;;;;;;18.49;64.94;100660.14;112842;1249;22832;-58
2024/04/09 07:12:19;;;;;;;12.20;3.60;;;;;;;18.69;64.59;100659.95;112333;1249;22505;-50
2024/04/09 07:15:07;;;;;;;8.40;3.50;;;;;;;18.89;63.78;100659.74;111938;1249;22307;-49
2024/04/09 07:17:54;;;;;;;10.70;3.50;;;;;;;19.09;61.87;100657.93;111783;1248;22582;-51
2024/04/09 07:20:28;;;;;;;8.60;3.60;;;;;;;19.23;60.82;100660.87;112740;1249;22414;-51
2024/04/09 07:23:28;;;;;;;8.20;3.50;;;;;;;19.41;59.68;100657.52;111808;1249;22547;-58
2024/04/09 07:33:40;;;;;;;6.00;2.80;;;;;;;20.18;57.63;100649.20;111592;1248;22928;-50
2024/04/09 07:36:30;;;;;;;6.50;3.20;;;;;;;20.39;57.41;100645.65;111183;1249;22708;-59
2024/04/09 07:39:20;;;;;;;10.70;2.70;;;;;;;20.55;55.76;100646.37;111529;1249;22339;-61
2024/04/09 07:42:10;;;;;;;11.90;2.70;;;;;;;20.74;55.23;100644.79;111958;1249;22754;-49
2024/04/09 07:44:41;;;;;;;14.30;2.90;;;;;;;20.89;53.93;100639.45;112169;1248;22508;-60
2024/04/09 07:47:15;;;;;;;5.50;2.90;;;;;;;21.04;53.63;100637.63;111289;1249;24208;-49
2024/04/09 07:49:44;;;;;;;11.60;2.40;;;;;;;21.18;52.10;100633.01;111897;1249;23307;-50
2024/04/09 07:52:19;;;;;;;7.60;2.70;;;;;;;21.34;51.21;100630.13;111558;1248;22549;-50
2024/04/09 07:55:00;;;;;;;10.80;3.00;;;;;;;21.49;50.23;100631.83;111445;1249;22498;-57
2024/04/09 07:57:39;;;;;;;5.40;2.90;;;;;;;21.61;48.44;100625.89;111966;1249;25305;-49
2024/04/09 08:00:20;;;;;;;9.80;3.20;;;;;;;21.70;48.81;100627.25;111686;1249;22537;-49
2024/04/09 08:03:08;;;;;;;11.40;3.40;;;;;;;21.82;48.43;100624.10;112299;1247;22501;-50
2024/04/09 08:05:39;;;;;;;4.80;3.00;;;;;;;21.94;48.67;100623.96;111975;1249;23667;-57
2024/04/09 08:08:09;;;;;;;6.80;2.40;;;;;;;22.07;46.72;100619.71;112002;1249;22422;-50
2024/04/09 08:11:09;;;;;;;9.60;3.20;;;;;;;22.20;45.64;100621.46;112218;1249;23160;-50
2024/04/09 08:17:48;;;;;;;12.10;3.00;;;;;;;22.52;44.09;100614.23;111559;1249;22543;-49
2024/04/09 08:21:12;;;;;;;4.50;2.50;;;;;;;22.67;41.71;100613.36;111482;1249;24336;-59
2024/04/09 08:23:54;;;;;;;9.90;3.20;;;;;;;22.74;41.53;100610.17;111643;1249;23179;-49
2024/04/09 08:26:32;;;;;;;13.10;2.70;;;;;;;22.85;41.85;100608.11;112299;1249;22987;-57
2024/04/09 08:29:05;;;;;;;7.20;2.50;;;;;;;22.96;39.90;100609.94;111546;1249;23134;-58
2024/04/09 08:31:37;;;;;;;8.40;2.00;;;;;;;22.99;38.82;100606.40;111678;1249;22177;-60
2024/04/09 08:34:17;;;;;;;5.30;2.80;;;;;;;23.05;38.51;100606.32;111844;1249;22498;-51
2024/04/09 08:36:51;;;;;;;4.90;2.40;;;;;;;23.11;37.83;100605.29;111795;1248;22443;-58
2024/04/09 08:39:19;;;;;;;6.90;2.10;;;;;;;23.13;37.32;100601.17;112561;1249;22497;-64
2024/04/09 08:41:46;;;;;;;6.50;2.20;;;;;;;23.16;37.65;100603.14;112930;1249;22476;-57
2024/04/09 08:44:13;;;;;;;6.20;2.20;;;;;;;23.22;38.20;100598.77;112874;1249;23028;-59
2024/04/09 08:46:45;;;;;;;6.40;2.00;;;;;;;23.34;38.55;100598.88;112034;1249;22390;-60
2024/04/09 08:49:15;;;;;;;7.20;1.90;;;;;;;23.45;36.31;100600.13;112756;1248;22431;-59
2024/04/09 08:51:42;;;;;;;4.10;2.10;;;;;;;23.47;35.76;100597.02;112686;1249;22311;-49
2024/04/09 08:54:15;;;;;;;2.20;2.00;;;;;;;23.52;36.13;100590.52;111933;1249;22828;-49
2024/04/09 08:56:49;;;;;;;5.40;2.30;;;;;;;23.68;35.70;100590.11;112477;1249;22369;-49
2024/04/09 08:59:22;;;;;;;4.50;2.40;;;;;;;23.76;35.07;100589.04;112268;1249;22173;-49
2024/04/09 09:01:50;;;;;;;3.90;2.50;;;;;;;23.75;33.94;100590.50;112432;1249;22260;-51
2024/04/09 09:04:20;;;;;;;5.60;2.60;;;;;;;23.72;34.24;100581.23;112291;1249;22396;-50
2024/04/09 09:06:49;;;;;;;5.00;2.90;;;;;;;23.77;34.32;100580.61;111986;1249;22524;-50
2024/04/09 09:09:29;;;;;;;3.80;3.00;;;;;;;23.81;33.75;100574.89;112575;1248;22913;-48
2024/04/09 09:12:03;;;;;;;5.20;2.80;;;;;;;23.80;33.24;100572.79;112686;1249;23029;-50
2024/04/09 09:14:33;;;;;;;7.30;2.70;;;;;;;23.80;33.86;100575.61;112685;1249;22321;-51
2024/04/09 09:17:18;;;;;;;4.60;2.90;;;;;;;23.89;34.30;100573.95;111972;1248;22555;-58
2024/04/09 09:19:56;;;;;;;4.80;2.80;;;;;;;23.96;33.95;100573.39;111620;1249;22498;-58
2024/04/09 09:22:29;;;;;;;3.60;2.50;;;;;;;24.05;34.04;100566.52;111858;1240;24163;-48
2024/04/09 09:25:05;;;;;;;2.90;2.30;;;;;;;24.12;34.35;100564.20;111429;1249;23595;-50
2024/04/09 09:28:17;;;;;;;5.50;2.40;;;;;;;24.15;33.67;100564.40;112377;1249;22216;-60
2024/04/09 09:31:20;;;;;;;3.30;1.90;;;;;;;24.04;34.19;100557.87;112189;1248;22760;-50
2024/04/09 09:33:48;;;;;;;5.30;1.90;;;;;;;24.03;34.42;100559.48;112454;1249;23221;-50
2024/04/09 09:36:21;;;;;;;17.30;3.10;;;;;;;24.08;34.71;100552.14;112819;1247;23570;-50
2024/04/09 09:38:48;;;;;;;5.50;2.70;;;;;;;24.11;34.90;100556.61;112830;1249;22902;-50
2024/04/09 09:41:35;;;;;;;6.00;2.60;;;;;;;24.13;33.50;100556.88;111611;1249;22519;-57
2024/04/09 09:44:07;;;;;;;4.10;2.50;;;;;;;24.10;33.75;100548.08;112764;1249;22450;-58
2024/04/09 09:46:35;;;;;;;6.00;2.60;;;;;;;24.18;34.07;100547.50;112710;1249;23028;-57
2024/04/09 09:49:03;;;;;;;8.30;3.70;;;;;;;24.34;34.13;100547.39;112823;1249;22801;-58
2024/04/09 09:51:30;;;;;;;6.40;2.20;;;;;;;24.52;33.60;100548.58;112660;1249;22442;-59
2024/04/09 09:53:58;;;;;;;8.80;2.60;;;;;;;24.62;33.28;100545.16;112824;1249;23350;-50
2024/04/09 09:56:26;;;;;;;4.10;2.00;;;;;;;24.65;33.37;100545.37;112830;1238;22428;-50
2024/04/09 09:58:54;;;;;;;4.00;2.40;;;;;;;24.66;32.59;100547.48;112495;1249;22384;-51
2024/04/09 10:01:23;;;;;;;6.20;2.70;;;;;;;24.64;32.88;100544.54;112516;1249;22357;-51
2024/04/09 10:03:52;;;;;;;3.50;2.20;;;;;;;24.63;33.11;100536.22;112686;1249;22515;-51
2024/04/09 10:06:27;;;;;;;5.20;2.10;;;;;;;24.69;33.37;100540.67;112176;1249;22274;-58
2024/04/09 10:09:07;;;;;;;2.80;1.90;;;;;;;24.76;32.89;100533.54;112477;1249;22488;-59
2024/04/09 10:13:14;;;;;;;5.90;2.00;;;;;;;24.72;32.38;100531.61;112489;1241;22410;-59
2024/04/09 10:16:19;;;;;;;3.00;2.00;;;;;;;24.64;32.63;100524.92;111460;1247;23002;-49
2024/04/09 10:19:35;;;;;;;4.60;2.10;;;;;;;24.72;33.38;100526.42;112050;1243;24065;-59
2024/04/09 10:22:10;;;;;;;5.50;2.30;;;;;;;24.93;32.70;100526.92;112525;1249;22886;-49
2024/04/09 10:24:45;;;;;;;5.30;2.40;;;;;;;25.22;31.94;100528.48;112231;1249;22301;-58
2024/04/09 10:27:13;;;;;;;5.30;2.40;;;;;;;25.48;31.71;100525.56;112730;1248;23014;-59
2024/04/09 10:29:53;;;;;;;8.00;2.40;;;;;;;25.78;31.58;100517.70;112413;1249;23741;-59
2024/04/09 10:32:24;;;;;;;6.60;2.50;;;;;;;26.10;30.21;100519.89;111930;1249;22669;-49
2024/04/09 10:34:52;;;;;;;7.20;2.30;;;;;;;26.22;29.75;100505.92;112805;1249;22454;-50
2024/04/09 10:37:23;;;;;;;3.20;2.30;;;;;;;26.46;30.11;100506.79;112627;1249;23842;-59
2024/04/09 10:39:56;;;;;;;10.20;2.10;;;;;;;26.99;30.37;100506.30;112590;1249;22455;-49
2024/04/09 10:42:26;;;;;;;6.30;2.30;;;;;;;27.21;29.51;100500.40;112258;1248;22445;-51
2024/04/09 10:44:54;;;;;;;6.00;2.40;;;;;;;27.51;28.57;100498.05;112805;1249;22352;-50
2024/04/09 10:47:23;;;;;;;2.90;2.10;;;;;;;27.88;28.36;100498.91;111792;1248;23061;-50
2024/04/09 10:49:50;;;;;;;6.80;2.30;;;;;;;28.29;27.32;100498.23;112884;1249;22925;-50
2024/04/09 10:52:17;;;;;;;4.80;1.90;;;;;;;28.67;27.04;100496.96;112792;1249;22485;-50
2024/04/09 10:54:44;;;;;;;4.10;2.20;;;;;;;29.04;26.69;100491.75;112695;1248;23363;-51
2024/04/09 10:57:11;;;;;;;4.00;2.50;;;;;;;29.45;26.39;100491.45;112867;1249;22411;-52
2024/04/09 10:59:39;;;;;;;3.90;2.30;;;;;;;29.90;26.14;100484.38;112826;1249;22902;-52
2024/04/09 11:02:08;;;;;;;12.20;2.70;;;;;;;30.29;24.19;100484.59;112614;1249;23255;-58
2024/04/09 11:04:35;;;;;;;5.80;2.40;;;;;;;30.33;23.67;100484.62;112168;1249;22430;-59
2024/04/09 11:07:03;;;;;;;7.80;2.90;;;;;;;30.23;23.83;100478.58;112372;1249;23217;-59
2024/04/09 11:09:31;;;;;;;5.20;2.50;;;;;;;30.15;23.66;100475.92;112297;1249;23106;-59
2024/04/09 11:12:02;;;;;;;2.80;2.10;;;;;;;30.19;24.36;100467.52;111758;1248;22429;-51
2024/04/09 11:14:29;;;;;;;2.90;2.10;;;;;;;30.36;23.87;100475.59;112384;1249;22927;-58
2024/04/09 11:16:57;;;;;;;6.00;2.70;;;;;;;30.36;24.16;100462.77;112473;1249;22650;-51
2024/04/09 11:19:29;;;;;;;5.60;3.00;;;;;;;30.45;24.44;100461.48;112266;1249;22940;-52
2024/04/09 11:21:56;;;;;;;4.30;2.60;;;;;;;30.58;24.15;100460.08;112580;1249;22153;-49
2024/04/09 11:24:23;;;;;;;8.90;2.60;;;;;;;30.57;23.64;100460.17;112133;1249;22487;-59
2024/04/09 11:26:51;;;;;;;4.50;2.40;;;;;;;30.38;23.66;100451.25;112341;1249;23212;-57
2024/04/09 11:29:21;;;;;;;6.90;2.30;;;;;;;30.25;24.24;100449.81;112573;1248;22956;-60
2024/04/09 11:31:49;;;;;;;19.40;2.90;;;;;;;30.07;24.55;100443.52;112606;1249;23097;-59
2024/04/09 11:34:28;;;;;;;8.10;2.30;;;;;;;29.87;24.59;100436.58;112645;1248;23247;-57
2024/04/09 11:36:58;;;;;;;4.80;2.10;;;;;;;29.74;24.79;100431.67;112174;1249;22541;-57
2024/04/09 11:39:45;;;;;;;3.70;2.00;;;;;;;29.61;24.38;100433.44;112029;1249;22558;-58
2024/04/09 11:42:13;;;;;;;4.00;1.90;;;;;;;29.50;24.43;100427.79;112152;1249;22485;-58
2024/04/09 11:45:00;;;;;;;8.90;2.30;;;;;;;29.53;24.63;100427.38;112144;1249;23007;-51
2024/04/09 11:47:31;;;;;;;7.20;2.60;;;;;;;29.37;24.08;100421.73;112067;1249;22502;-58
2024/04/09 11:49:58;;;;;;;6.60;2.90;;;;;;;29.09;24.04;100416.76;112721;1248;22975;-59
2024/04/09 11:52:26;;;;;;;7.60;2.30;;;;;;;28.90;24.14;100412.58;112754;1249;22969;-60
2024/04/09 11:54:54;;;;;;;6.80;2.20;;;;;;;28.77;24.19;100416.36;112614;1241;22574;-51
2024/04/09 11:57:25;;;;;;;6.00;2.60;;;;;;;28.77;23.85;100410.66;112436;1248;22418;-50
2024/04/09 11:59:53;;;;;;;7.60;2.40;;;;;;;28.89;24.20;100414.97;112746;1249;22303;-50
2024/04/09 12:02:20;;;;;;;2.10;1.70;;;;;;;28.98;24.38;100409.84;112738;1249;22836;-51
2024/04/09 12:04:46;;;;;;;3.30;2.30;;;;;;;28.91;24.47;100406.52;112693;1249;22679;-51
2024/04/09 12:07:14;;;;;;;5.00;2.00;;;;;;;28.82;24.45;100402.86;112627;1249;23217;-51
2024/04/09 12:09:40;;;;;;;3.20;2.40;;;;;;;28.77;24.46;100397.73;112794;1237;23220;-52
2024/04/09 12:12:08;;;;;;;5.50;2.00;;;;;;;28.73;24.40;100394.05;112706;1248;23053;-51
2024/04/09 12:14:36;;;;;;;6.00;2.10;;;;;;;28.81;24.13;100392.74;112676;1249;22498;-53
2024/04/09 12:17:04;;;;;;;20.20;4.20;;;;;;;29.03;24.42;100391.13;112728;1245;22760;-53
2024/04/09 12:19:31;;;;;;;6.30;1.90;;;;;;;29.17;24.68;100384.13;112686;1246;22376;-60
2024/04/09 12:21:59;;;;;;;4.80;2.60;;;;;;;29.20;25.07;100380.14;112777;1237;22266;-52
2024/04/09 12:24:27;;;;;;;4.20;2.10;;;;;;;29.16;25.22;100379.17;112804;1246;22225;-52
2024/04/09 12:26:54;;;;;;;5.20;2.50;;;;;;;29.13;25.52;100373.31;112782;1249;22989;-51
2024/04/09 12:29:28;;;;;;;4.60;2.50;;;;;;;29.04;25.43;100368.63;112834;1249;22231;-60
2024/04/09 12:31:55;;;;;;;5.10;2.30;;;;;;;29.03;24.88;100370.80;112855;1249;22397;-52
2024/04/09 12:34:22;;;;;;;5.50;2.00;;;;;;;28.87;24.83;100376.35;112897;1249;22373;-51
2024/04/09 12:36:49;;;;;;;4.40;2.50;;;;;;;28.60;24.54;100373.54;112941;1237;22412;-60
2024/04/09 12:39:16;;;;;;;6.90;2.20;;;;;;;28.44;24.33;100370.54;112944;1237;22390;-51
2024/04/09 12:41:43;;;;;;;6.90;2.90;;;;;;;28.37;24.59;100369.83;112967;1249;23314;-51
2024/04/09 12:44:10;;;;;;;8.20;3.30;;;;;;;28.35;25.66;100365.65;112980;1249;23659;-58
2024/04/09 12:46:36;;;;;;;2.80;2.50;;;;;;;28.42;25.24;100367.46;112941;1249;22993;-58
2024/04/09 12:49:03;;;;;;;5.40;2.40;;;;;;;28.38;24.75;100364.73;112960;1236;22373;-50
2024/04/09 12:51:52;;;;;;;7.00;2.50;;;;;;;28.19;25.61;100362.71;112985;1249;23146;-59
2024/04/09 12:54:20;;;;;;;3.50;2.60;;;;;;;28.16;25.31;100359.30;112790;1249;23219;-50
2024/04/09 12:56:47;;;;;;;5.30;2.70;;;;;;;28.24;25.47;100357.09;112953;1244;23262;-54
2024/04/09 12:59:17;;;;;;;7.20;2.60;;;;;;;28.38;25.52;100354.33;112953;1249;22447;-50
2024/04/09 13:01:56;;;;;;;4.10;2.30;;;;;;;28.65;25.15;100351.83;112983;1249;23009;-59
2024/04/09 13:04:27;;;;;;;3.70;2.20;;;;;;;29.02;24.96;100339.85;112996;1249;23110;-59
2024/04/09 13:06:54;;;;;;;5.60;2.10;;;;;;;29.32;23.94;100336.63;112974;1249;23089;-59
2024/04/09 13:09:21;;;;;;;6.50;3.00;;;;;;;29.41;23.90;100333.94;112965;1237;22413;-58
2024/04/09 13:11:48;;;;;;;3.80;2.00;;;;;;;29.58;24.23;100333.23;112936;1238;22398;-50
2024/04/09 13:14:16;;;;;;;6.30;2.70;;;;;;;29.62;22.93;100330.20;112891;1249;22494;-60
2024/04/09 13:16:43;;;;;;;6.30;2.90;;;;;;;29.44;23.24;100331.77;112889;1249;23217;-51
2024/04/09 13:19:19;;;;;;;5.70;3.00;;;;;;;29.47;23.05;100330.28;112915;1249;22363;-52
2024/04/09 13:21:47;;;;;;;5.20;3.10;;;;;;;29.61;23.31;100325.73;112961;1249;22266;-51
2024/04/09 13:24:14;;;;;;;6.20;2.40;;;;;;;29.82;22.95;100328.23;111705;1249;22672;-52
2024/04/09 13:26:41;;;;;;;4.40;2.50;;;;;;;30.12;22.92;100323.34;112964;1249;22151;-52
2024/04/09 13:29:08;;;;;;;5.50;2.50;;;;;;;30.65;22.55;100324.00;112952;1248;23306;-52
2024/04/09 13:31:35;;;;;;;4.70;2.30;;;;;;;30.92;22.36;100325.02;112982;1249;23160;-53
2024/04/09 13:34:05;;;;;;;6.50;2.70;;;;;;;31.05;22.28;100323.91;112998;1249;23160;-50
2024/04/09 13:36:32;;;;;;;9.20;2.60;;;;;;;31.12;22.35;100319.91;112987;1248;22867;-50
2024/04/09 13:38:59;;;;;;;5.00;2.10;;;;;;;31.35;22.53;100320.79;112937;1249;22147;-51
2024/04/09 13:41:26;;;;;;;3.60;2.30;;;;;;;31.58;21.48;100323.80;112971;1249;22433;-50
2024/04/09 13:43:53;;;;;;;7.20;1.80;;;;;;;31.49;20.81;100319.38;113001;1249;22384;-51
2024/04/09 13:46:21;;;;;;;2.50;2.10;;;;;;;31.16;21.19;100321.56;112970;1249;22578;-59
2024/04/09 13:48:51;;;;;;;5.80;1.90;;;;;;;30.94;21.09;100317.27;112968;1249;22382;-59
2024/04/09 13:51:18;;;;;;;4.60;2.10;;;;;;;30.94;20.86;100317.94;112984;1249;23510;-59
2024/04/09 13:53:45;;;;;;;6.50;2.00;;;;;;;31.00;21.34;100319.46;111880;1249;22432;-51
2024/04/09 13:56:12;;;;;;;3.30;2.10;;;;;;;30.92;21.17;100316.85;113029;1249;23128;-51
2024/04/09 13:58:39;;;;;;;6.30;1.90;;;;;;;30.75;21.24;100315.77;112482;1249;22510;-54
2024/04/09 14:01:06;;;;;;;5.70;2.10;;;;;;;30.53;21.35;100314.41;111990;1249;24124;-60
2024/04/09 14:03:34;;;;;;;6.10;2.30;;;;;;;30.31;21.53;100311.52;111776;1249;23246;-52
2024/04/09 14:06:02;;;;;;;11.40;2.40;;;;;;;30.10;21.92;100311.91;110763;1249;22526;-60
2024/04/09 14:08:29;;;;;;;6.70;2.60;;;;;;;30.07;21.72;100316.55;110431;1249;24829;-59
2024/04/09 14:10:56;;;;;;;6.80;2.60;;;;;;;30.00;21.48;100313.52;110243;1249;23244;-50
2024/04/09 14:13:28;;;;;;;8.50;2.70;;;;;;;29.99;21.56;100314.27;110782;1248;22500;-52
2024/04/09 14:15:55;;;;;;;4.70;2.20;;;;;;;30.14;21.54;100312.70;113024;1249;22346;-52
2024/04/09 14:18:26;;;;;;;4.70;2.90;;;;;;;30.40;21.39;100310.27;113015;1249;22404;-52
2024/04/09 14:20:54;;;;;;;4.30;2.40;;;;;;;30.78;21.30;100309.80;111393;1237;22550;-61
2024/04/09 14:23:24;;;;;;;4.90;3.10;;;;;;;31.46;20.97;100306.88;110519;1249;22584;-59
2024/04/09 14:25:51;;;;;;;4.60;2.90;;;;;;;32.22;20.47;100309.51;110711;1248;22434;-51
2024/04/09 14:28:18;;;;;;;3.20;2.70;;;;;;;32.85;19.98;100305.74;112206;1249;22509;-61
2024/04/09 14:30:45;;;;;;;7.10;2.90;;;;;;;33.40;19.83;100304.16;110944;1249;22510;-59
2024/04/09 14:33:13;;;;;;;3.30;3.00;;;;;;;33.99;19.30;100300.83;112080;1249;22514;-52
2024/04/09 14:35:43;;;;;;;5.70;2.40;;;;;;;34.45;19.09;100302.50;110863;1241;24184;-54
2024/04/09 14:38:10;;;;;;;13.00;2.40;;;;;;;34.77;18.93;100299.88;110431;1249;23603;-61
2024/04/09 14:40:37;;;;;;;3.80;2.60;;;;;;;34.89;18.61;100296.50;110788;1249;22571;-60
2024/04/09 14:43:05;;;;;;;5.10;2.40;;;;;;;35.01;18.00;100292.82;110717;1248;23123;-52
2024/04/09 14:45:31;;;;;;;11.30;3.00;;;;;;;35.04;17.42;100289.61;111125;1249;22526;-52
2024/04/09 14:47:59;;;;;;;7.20;2.30;;;;;;;34.62;18.32;100291.37;110556;1249;23314;-61
2024/04/09 14:50:27;;;;;;;12.70;3.10;;;;;;;34.20;18.74;100294.38;109884;1249;22518;-60
2024/04/09 14:52:55;;;;;;;6.10;2.80;;;;;;;34.22;18.65;100292.67;110013;1249;25212;-61
2024/04/09 14:55:22;;;;;;;2.20;2.00;;;;;;;34.26;18.33;100288.77;110142;1249;23855;-61
2024/04/09 14:57:49;;;;;;;4.20;2.70;;;;;;;34.19;17.97;100286.60;110144;1249;25424;-60
2024/04/09 15:00:17;;;;;;;3.70;2.50;;;;;;;33.94;17.83;100284.02;110479;1235;22958;-53
2024/04/09 15:02:45;;;;;;;4.40;3.00;;;;;;;33.67;18.39;100284.02;110517;1249;22651;-51
2024/04/09 15:05:13;;;;;;;5.60;3.00;;;;;;;33.36;18.70;100279.94;110651;1234;22519;-59
2024/04/09 15:07:40;;;;;;;4.70;2.60;;;;;;;32.84;19.27;100284.13;110336;1249;23309;-58
2024/04/09 15:10:10;;;;;;;4.80;2.50;;;;;;;32.22;19.51;100288.98;110298;1237;24163;-52
2024/04/09 15:12:41;;;;;;;6.50;2.90;;;;;;;31.60;19.99;100284.34;109997;1249;22498;-60
2024/04/09 15:15:10;;;;;;;4.70;2.80;;;;;;;31.13;20.30;100283.77;110480;1237;22655;-61
2024/04/09 15:17:37;;;;;;;12.40;3.40;;;;;;;30.67;21.54;100290.90;110245;1249;22569;-50
2024/04/09 15:20:05;;;;;;;5.80;3.20;;;;;;;30.33;22.24;100286.53;110427;1248;22651;-45
2024/04/09 15:22:34;;;;;;;5.50;2.70;;;;;;;30.25;22.49;100284.58;109852;1235;22552;-53
2024/04/09 15:25:01;;;;;;;5.50;2.60;;;;;;;30.31;21.97;100284.52;110186;1249;25407;-51
2024/04/09 15:27:28;;;;;;;10.70;3.10;;;;;;;30.26;22.35;100279.73;109919;1249;24347;-47
2024/04/09 15:29:55;;;;;;;7.10;3.50;;;;;;;30.22;22.64;100278.27;109827;1247;25327;-44
2024/04/09 15:32:22;;;;;;;8.80;3.70;;;;;;;30.10;22.62;100277.85;110166;1238;22544;-52
2024/04/09 15:34:49;;;;;;;5.90;3.00;;;;;;;29.96;22.60;100279.09;110112;1249;22518;-45
2024/04/09 15:37:16;;;;;;;4.70;2.50;;;;;;;29.86;22.53;100276.48;110681;1249;22526;-46
2024/04/09 15:39:44;;;;;;;9.60;2.80;;;;;;;29.71;22.30;100274.73;110400;1246;22514;-52
2024/04/09 15:42:10;;;;;;;11.40;3.60;;;;;;;29.44;22.57;100275.15;110331;1249;22598;-47
2024/04/09 15:44:37;;;;;;;4.60;2.70;;;;;;;29.16;23.12;100274.67;110826;1249;22518;-53
2024/04/09 15:47:04;;;;;;;7.10;2.70;;;;;;;28.99;23.63;100273.85;110496;1249;22511;-56
2024/04/09 15:49:31;;;;;;;8.20;2.80;;;;;;;28.83;24.14;100275.80;110443;1249;22510;-46
2024/04/09 15:51:58;;;;;;;8.60;2.60;;;;;;;28.60;24.38;100278.59;110532;1237;22969;-51
2024/04/09 15:54:26;;;;;;;5.50;2.80;;;;;;;28.43;24.78;100285.98;111050;1234;22571;-52
2024/04/09 15:56:53;;;;;;;8.00;3.00;;;;;;;28.19;24.63;100281.27;110113;1237;22566;-53
2024/04/09 15:59:20;;;;;;;4.60;2.60;;;;;;;27.89;25.11;100283.79;110402;1249;24182;-52
2024/04/09 16:01:47;;;;;;;8.10;2.70;;;;;;;27.61;25.45;100280.77;110202;1248;23635;-52
2024/04/09 16:04:14;;;;;;;5.80;2.90;;;;;;;27.35;26.15;100284.24;110662;1238;24219;-45
2024/04/09 16:06:41;;;;;;;11.70;3.20;;;;;;;27.09;26.58;100288.50;111669;1249;22515;-47
2024/04/09 16:09:11;;;;;;;8.20;3.10;;;;;;;26.83;27.26;100287.58;109974;1249;25257;-45
2024/04/09 16:11:38;;;;;;;15.60;5.70;;;;;;;26.60;28.21;100292.05;110160;1248;22506;-46
2024/04/09 16:14:06;;;;;;;16.20;6.90;;;;;;;26.38;28.64;100291.14;110666;1237;22634;-46
2024/04/09 16:16:33;;;;;;;21.80;6.10;;;;;;;26.15;28.68;100286.35;110770;1237;22545;-46
